createdAt,value
2023-05-06T00:00:06.540Z,16.80
2023-05-06T00:02:36.158Z,16.80
2023-05-06T00:05:03.425Z,16.80
2023-05-06T00:07:30.804Z,16.80
2023-05-06T00:09:57.962Z,16.70
2023-05-06T00:12:25.093Z,16.70
2023-05-06T00:14:59.056Z,16.70
2023-05-06T00:17:26.222Z,16.60
2023-05-06T00:19:56.249Z,16.60
2023-05-06T00:22:26.032Z,16.50
2023-05-06T00:24:55.496Z,16.50
2023-05-06T00:27:25.007Z,16.50
2023-05-06T00:29:54.655Z,16.40
2023-05-06T00:32:27.126Z,16.40
2023-05-06T00:34:54.225Z,16.40
2023-05-06T00:37:26.062Z,16.30
2023-05-06T00:39:53.190Z,16.30
2023-05-06T00:42:23.342Z,16.30
2023-05-06T00:44:51.163Z,16.20
2023-05-06T00:47:22.407Z,16.20
2023-05-06T00:49:51.090Z,16.20
2023-05-06T00:52:23.618Z,16.10
2023-05-06T00:54:55.842Z,16.10
2023-05-06T00:57:25.721Z,16.10
2023-05-06T01:00:00.733Z,16.00
2023-05-06T01:02:46.588Z,16.00
2023-05-06T01:05:20.900Z,16.00
2023-05-06T01:08:06.831Z,16.00
2023-05-06T01:10:47.463Z,15.90
2023-05-06T01:13:45.656Z,15.90
2023-05-06T01:16:18.101Z,15.80
2023-05-06T01:18:49.491Z,15.80
2023-05-06T01:21:22.077Z,15.70
2023-05-06T01:23:53.416Z,15.70
2023-05-06T01:26:23.097Z,15.70
2023-05-06T01:28:52.635Z,15.60
2023-05-06T01:31:30.127Z,15.60
2023-05-06T01:34:15.585Z,15.60
2023-05-06T01:37:22.703Z,15.50
2023-05-06T01:39:58.595Z,15.60
2023-05-06T01:42:27.313Z,15.50
2023-05-06T01:44:57.160Z,15.50
2023-05-06T01:47:25.285Z,15.50
2023-05-06T01:49:54.831Z,15.40
2023-05-06T01:52:25.909Z,15.40
2023-05-06T01:54:52.993Z,15.40
2023-05-06T01:57:20.175Z,15.30
2023-05-06T01:59:47.274Z,15.30
2023-05-06T02:02:16.900Z,15.30
2023-05-06T02:04:46.301Z,15.30
2023-05-06T02:07:13.376Z,15.20
2023-05-06T02:09:42.660Z,15.20
2023-05-06T02:12:12.306Z,15.20
2023-05-06T02:14:39.430Z,15.20
2023-05-06T02:17:11.260Z,15.20
2023-05-06T02:19:42.707Z,15.20
2023-05-06T02:22:14.555Z,15.20
2023-05-06T02:24:44.284Z,15.20
2023-05-06T02:27:11.409Z,15.10
2023-05-06T02:29:41.548Z,15.10
2023-05-06T02:32:08.702Z,15.10
2023-05-06T02:34:40.457Z,15.00
2023-05-06T02:37:07.590Z,15.00
2023-05-06T02:39:37.020Z,15.20
2023-05-06T02:42:04.231Z,15.20
2023-05-06T02:44:33.661Z,15.10
2023-05-06T02:47:03.127Z,15.10
2023-05-06T02:49:30.323Z,15.00
2023-05-06T02:51:57.507Z,15.00
2023-05-06T02:54:24.746Z,15.00
2023-05-06T02:56:51.927Z,14.90
2023-05-06T02:59:24.075Z,14.90
2023-05-06T03:01:51.168Z,14.80
2023-05-06T03:04:21.269Z,14.80
2023-05-06T03:06:50.614Z,14.80
2023-05-06T03:09:17.788Z,14.80
2023-05-06T03:11:44.905Z,14.80
2023-05-06T03:14:14.675Z,14.80
2023-05-06T03:16:41.812Z,14.80
2023-05-06T03:19:11.450Z,14.80
2023-05-06T03:21:43.530Z,14.80
2023-05-06T03:24:12.915Z,14.70
2023-05-06T03:26:40.088Z,14.70
2023-05-06T03:29:11.609Z,14.70
2023-05-06T03:31:38.769Z,14.70
2023-05-06T03:34:08.142Z,14.70
2023-05-06T03:36:35.571Z,14.70
2023-05-06T03:39:09.567Z,14.70
2023-05-06T03:41:36.715Z,14.70
2023-05-06T03:44:06.411Z,14.70
2023-05-06T03:46:35.874Z,14.70
2023-05-06T03:49:07.951Z,14.70
2023-05-06T03:51:37.255Z,14.70
2023-05-06T03:54:06.936Z,14.70
2023-05-06T03:56:36.186Z,14.60
2023-05-06T03:59:05.649Z,14.60
2023-05-06T04:01:32.762Z,14.60
2023-05-06T04:03:59.909Z,14.60
2023-05-06T04:06:34.266Z,14.60
2023-05-06T04:09:06.350Z,14.60
2023-05-06T04:11:38.415Z,14.50
2023-05-06T04:14:07.871Z,14.50
2023-05-06T04:16:37.173Z,14.50
2023-05-06T04:19:07.040Z,14.50
2023-05-06T04:21:36.749Z,14.50
2023-05-06T04:24:06.624Z,14.50
2023-05-06T04:26:34.009Z,14.50
2023-05-06T04:29:05.826Z,14.50
2023-05-06T04:31:36.938Z,14.50
2023-05-06T04:34:10.908Z,14.40
2023-05-06T04:36:40.468Z,14.40
2023-05-06T04:39:08.847Z,14.40
2023-05-06T04:41:36.564Z,14.40
2023-05-06T04:44:06.016Z,14.40
2023-05-06T04:46:34.081Z,14.40
2023-05-06T04:49:03.827Z,14.40
2023-05-06T04:51:31.960Z,14.40
2023-05-06T04:53:59.149Z,14.40
2023-05-06T04:56:26.396Z,14.50
2023-05-06T04:58:58.211Z,14.50
2023-05-06T05:01:26.323Z,14.50
2023-05-06T05:03:56.032Z,14.50
2023-05-06T05:06:25.631Z,14.50
2023-05-06T05:08:57.330Z,14.50
2023-05-06T05:11:26.772Z,14.50
2023-05-06T05:14:01.639Z,14.50
2023-05-06T05:16:29.694Z,14.50
2023-05-06T05:18:57.052Z,14.60
2023-05-06T05:21:24.223Z,14.60
2023-05-06T05:23:54.203Z,14.60
2023-05-06T05:26:21.411Z,14.70
2023-05-06T05:28:48.603Z,14.70
2023-05-06T05:31:20.692Z,14.70
2023-05-06T05:33:50.074Z,14.80
2023-05-06T05:36:17.332Z,14.80
2023-05-06T05:38:44.420Z,14.80
2023-05-06T05:41:11.887Z,14.90
2023-05-06T05:43:41.251Z,14.90
2023-05-06T05:46:10.426Z,14.90
2023-05-06T05:48:39.874Z,15.00
2023-05-06T05:51:07.012Z,15.00
2023-05-06T05:53:34.131Z,15.10
2023-05-06T05:56:06.323Z,15.10
2023-05-06T05:58:36.850Z,15.10
2023-05-06T06:01:06.561Z,15.20
2023-05-06T06:03:33.863Z,15.20
2023-05-06T06:06:01.312Z,15.30
2023-05-06T06:08:29.854Z,15.30
2023-05-06T06:10:57.195Z,15.40
2023-05-06T06:13:28.921Z,15.40
2023-05-06T06:15:59.540Z,15.40
2023-05-06T06:18:26.694Z,15.50
2023-05-06T06:20:58.545Z,15.50
2023-05-06T06:23:27.970Z,15.60
2023-05-06T06:25:55.140Z,15.60
2023-05-06T06:28:31.441Z,15.60
2023-05-06T06:31:00.583Z,15.70
2023-05-06T06:33:27.856Z,15.70
2023-05-06T06:36:00.389Z,15.80
2023-05-06T06:38:29.879Z,15.90
2023-05-06T06:41:01.286Z,15.90
2023-05-06T06:43:28.472Z,16.00
2023-05-06T06:45:56.364Z,16.00
2023-05-06T06:48:25.782Z,16.00
2023-05-06T06:50:52.868Z,16.10
2023-05-06T06:53:22.473Z,16.10
2023-05-06T06:55:49.638Z,16.20
2023-05-06T06:58:19.016Z,16.30
2023-05-06T07:00:46.178Z,16.30
2023-05-06T07:03:19.385Z,16.30
2023-05-06T07:05:49.074Z,16.40
2023-05-06T07:08:23.205Z,16.50
2023-05-06T07:10:50.579Z,16.60
2023-05-06T07:13:20.729Z,16.70
2023-05-06T07:15:47.936Z,16.70
2023-05-06T07:18:17.277Z,16.80
2023-05-06T07:20:47.016Z,16.90
2023-05-06T07:23:16.300Z,16.90
2023-05-06T07:25:46.075Z,17.00
2023-05-06T07:28:13.208Z,17.10
2023-05-06T07:30:40.419Z,17.20
2023-05-06T07:33:12.303Z,17.40
2023-05-06T07:35:39.453Z,17.50
2023-05-06T07:38:09.142Z,17.60
2023-05-06T07:40:36.288Z,17.70
2023-05-06T07:43:03.762Z,17.80
2023-05-06T07:45:35.927Z,17.90
2023-05-06T07:48:06.014Z,18.00
2023-05-06T07:50:33.436Z,18.10
2023-05-06T07:53:04.120Z,18.30
2023-05-06T07:55:35.090Z,18.40
2023-05-06T07:58:02.458Z,18.50
2023-05-06T08:00:31.875Z,18.60
2023-05-06T08:03:01.615Z,18.70
2023-05-06T08:05:28.772Z,18.80
2023-05-06T08:08:01.960Z,18.80
2023-05-06T08:10:29.043Z,18.90
2023-05-06T08:13:00.856Z,19.00
2023-05-06T08:15:28.148Z,19.10
2023-05-06T08:18:02.176Z,19.20
2023-05-06T08:20:34.563Z,19.20
2023-05-06T08:23:06.045Z,19.30
2023-05-06T08:25:35.740Z,19.40
2023-05-06T08:28:02.895Z,19.50
2023-05-06T08:30:30.207Z,19.60
2023-05-06T08:33:02.461Z,19.60
2023-05-06T08:35:31.927Z,19.60
2023-05-06T08:37:59.128Z,19.70
2023-05-06T08:40:35.788Z,19.70
2023-05-06T08:43:15.038Z,19.80
2023-05-06T08:45:42.864Z,19.80
2023-05-06T08:48:10.125Z,19.80
2023-05-06T08:50:43.227Z,19.90
2023-05-06T08:53:14.037Z,20.00
2023-05-06T08:55:44.238Z,20.00
2023-05-06T08:58:16.913Z,20.00
2023-05-06T09:00:46.383Z,20.10
2023-05-06T09:03:16.103Z,20.10
2023-05-06T09:05:45.822Z,20.20
2023-05-06T09:08:15.976Z,20.20
2023-05-06T09:10:46.744Z,20.20
2023-05-06T09:13:15.746Z,20.20
2023-05-06T09:15:47.512Z,20.30
2023-05-06T09:18:16.084Z,20.40
2023-05-06T09:20:51.202Z,20.40
2023-05-06T09:23:18.700Z,20.50
2023-05-06T09:25:49.710Z,20.50
2023-05-06T09:28:16.972Z,20.60
2023-05-06T09:30:47.890Z,20.70
2023-05-06T09:33:21.674Z,20.70
2023-05-06T09:35:50.017Z,20.80
2023-05-06T09:38:17.164Z,20.90
2023-05-06T09:40:44.300Z,21.00
2023-05-06T09:43:15.784Z,21.00
2023-05-06T09:45:46.310Z,21.10
2023-05-06T09:48:15.933Z,21.10
2023-05-06T09:50:45.749Z,21.20
2023-05-06T09:53:18.054Z,21.30
2023-05-06T09:55:48.518Z,21.30
2023-05-06T09:58:20.321Z,21.40
2023-05-06T10:00:52.948Z,21.50
2023-05-06T10:03:25.951Z,21.60
2023-05-06T10:05:57.395Z,21.60
2023-05-06T10:08:28.075Z,21.70
2023-05-06T10:10:59.082Z,21.80
2023-05-06T10:13:29.917Z,21.90
2023-05-06T10:16:03.040Z,21.90
2023-05-06T10:18:31.102Z,22.00
2023-05-06T10:21:01.454Z,22.00
2023-05-06T10:23:34.797Z,22.00
2023-05-06T10:26:10.523Z,22.10
2023-05-06T10:28:41.753Z,22.10
2023-05-06T10:31:13.614Z,22.20
2023-05-06T10:33:49.304Z,22.20
2023-05-06T10:36:25.342Z,22.30
2023-05-06T10:38:58.623Z,22.30
2023-05-06T10:41:28.156Z,22.30
2023-05-06T10:43:57.042Z,22.40
2023-05-06T10:46:28.806Z,22.40
2023-05-06T10:49:08.541Z,22.40
2023-05-06T10:51:36.484Z,22.50
2023-05-06T10:54:03.906Z,22.50
2023-05-06T10:56:37.356Z,22.60
2023-05-06T10:59:11.894Z,22.60
2023-05-06T11:01:41.156Z,22.70
2023-05-06T11:04:18.579Z,22.70
2023-05-06T11:06:49.136Z,22.80
2023-05-06T11:09:19.457Z,22.80
2023-05-06T11:11:54.757Z,22.80
2023-05-06T11:14:39.577Z,22.90
2023-05-06T11:17:11.762Z,23.00
2023-05-06T11:19:43.215Z,23.00
2023-05-06T11:22:42.230Z,23.00
2023-05-06T11:25:14.130Z,23.10
2023-05-06T11:27:43.763Z,23.20
2023-05-06T11:30:14.872Z,23.30
2023-05-06T11:32:43.410Z,23.30
2023-05-06T11:35:12.020Z,23.40
2023-05-06T11:37:41.319Z,23.40
2023-05-06T11:40:17.354Z,23.50
2023-05-06T11:42:47.065Z,23.50
2023-05-06T11:45:14.221Z,23.60
2023-05-06T11:47:46.066Z,23.60
2023-05-06T11:50:18.342Z,23.60
2023-05-06T11:52:48.083Z,23.60
2023-05-06T11:55:17.746Z,23.60
2023-05-06T11:57:46.272Z,23.60
2023-05-06T12:00:14.541Z,23.60
2023-05-06T12:02:48.280Z,23.60
2023-05-06T12:05:17.812Z,23.60
2023-05-06T12:07:45.392Z,23.60
2023-05-06T12:10:17.723Z,23.60
2023-05-06T12:12:44.903Z,23.60
2023-05-06T12:15:12.670Z,23.60
2023-05-06T12:17:40.268Z,23.60
2023-05-06T12:20:11.059Z,23.60
2023-05-06T12:22:45.588Z,23.70
2023-05-06T12:25:18.312Z,23.70
2023-05-06T12:27:45.661Z,23.70
2023-05-06T12:30:15.086Z,23.70
2023-05-06T12:33:02.359Z,23.70
2023-05-06T12:35:31.208Z,23.80
2023-05-06T12:38:10.303Z,23.80
2023-05-06T12:40:41.089Z,23.70
2023-05-06T12:43:12.203Z,23.60
2023-05-06T12:45:42.050Z,23.60
2023-05-06T12:48:16.152Z,23.60
2023-05-06T12:50:44.707Z,23.60
2023-05-06T12:53:15.850Z,23.50
2023-05-06T12:55:43.013Z,23.50
2023-05-06T12:58:17.033Z,23.50
2023-05-06T13:00:49.144Z,23.50
2023-05-06T13:03:16.483Z,23.50
2023-05-06T13:05:51.972Z,23.40
2023-05-06T13:08:19.183Z,23.40
2023-05-06T13:10:51.114Z,23.40
2023-05-06T13:13:21.122Z,23.30
2023-05-06T13:15:48.293Z,23.30
2023-05-06T13:18:20.097Z,23.30
2023-05-06T13:20:50.889Z,23.30
2023-05-06T13:23:19.435Z,23.30
2023-05-06T13:26:02.810Z,23.30
2023-05-06T13:28:32.224Z,23.30
2023-05-06T13:31:02.136Z,23.30
2023-05-06T13:33:31.946Z,23.30
2023-05-06T13:36:02.766Z,23.30
2023-05-06T13:38:31.785Z,23.30
2023-05-06T13:40:58.933Z,23.30
2023-05-06T13:43:28.293Z,23.30
2023-05-06T13:45:57.738Z,23.30
2023-05-06T13:48:24.932Z,23.30
2023-05-06T13:50:56.795Z,23.30
2023-05-06T13:53:26.408Z,23.30
2023-05-06T13:55:56.017Z,23.30
2023-05-06T13:58:27.864Z,23.30
2023-05-06T14:00:55.039Z,23.30
2023-05-06T14:03:27.262Z,23.30
2023-05-06T14:05:56.775Z,23.30
2023-05-06T14:08:26.091Z,23.40
2023-05-06T14:10:53.255Z,23.40
2023-05-06T14:13:22.957Z,23.40
2023-05-06T14:15:50.299Z,23.40
2023-05-06T14:18:26.511Z,23.50
2023-05-06T14:20:56.430Z,23.50
2023-05-06T14:23:23.532Z,23.50
2023-05-06T14:25:50.722Z,23.50
2023-05-06T14:28:18.215Z,23.60
2023-05-06T14:30:51.092Z,23.60
2023-05-06T14:33:20.602Z,23.60
2023-05-06T14:35:48.447Z,23.70
2023-05-06T14:38:16.870Z,23.70
2023-05-06T14:40:43.968Z,23.70
2023-05-06T14:43:13.386Z,23.70
2023-05-06T14:45:45.679Z,23.70
2023-05-06T14:48:13.121Z,23.70
2023-05-06T14:50:45.253Z,23.60
2023-05-06T14:53:14.563Z,23.60
2023-05-06T14:55:45.251Z,23.60
2023-05-06T14:58:14.494Z,23.60
2023-05-06T15:00:45.272Z,23.50
2023-05-06T15:03:12.397Z,23.50
2023-05-06T15:05:41.706Z,23.50
2023-05-06T15:08:11.124Z,23.50
2023-05-06T15:10:42.889Z,23.50
2023-05-06T15:13:10.524Z,23.50
2023-05-06T15:15:37.649Z,23.50
2023-05-06T15:18:07.509Z,23.50
2023-05-06T15:20:34.664Z,23.50
2023-05-06T15:23:04.139Z,23.50
2023-05-06T15:25:36.314Z,23.50
2023-05-06T15:28:07.630Z,23.50
2023-05-06T15:30:36.655Z,23.50
2023-05-06T15:33:06.040Z,23.40
2023-05-06T15:35:33.199Z,23.40
2023-05-06T15:38:03.707Z,23.40
2023-05-06T15:40:31.241Z,23.40
2023-05-06T15:43:03.640Z,23.30
2023-05-06T15:45:31.037Z,23.30
2023-05-06T15:47:58.212Z,23.30
2023-05-06T15:50:33.249Z,23.30
2023-05-06T15:53:03.312Z,23.30
2023-05-06T15:55:45.178Z,23.30
2023-05-06T15:58:21.113Z,23.30
2023-05-06T16:00:50.515Z,23.30
2023-05-06T16:03:17.753Z,23.20
2023-05-06T16:05:45.036Z,23.20
2023-05-06T16:08:12.257Z,23.20
2023-05-06T16:10:41.761Z,23.30
2023-05-06T16:13:09.215Z,23.30
2023-05-06T16:15:36.530Z,23.20
2023-05-06T16:18:06.087Z,23.20
2023-05-06T16:20:38.106Z,23.20
2023-05-06T16:23:05.764Z,23.20
2023-05-06T16:25:37.783Z,23.20
2023-05-06T16:28:10.664Z,23.20
2023-05-06T16:30:44.665Z,23.20
2023-05-06T16:33:13.227Z,23.20
2023-05-06T16:35:40.629Z,23.20
2023-05-06T16:38:10.372Z,23.20
2023-05-06T16:40:42.494Z,23.10
2023-05-06T16:43:09.831Z,23.10
2023-05-06T16:45:38.306Z,23.10
2023-05-06T16:48:06.444Z,23.10
2023-05-06T16:50:35.860Z,23.00
2023-05-06T16:53:05.090Z,23.00
2023-05-06T16:55:32.264Z,23.00
2023-05-06T16:58:02.400Z,23.00
2023-05-06T17:00:29.667Z,22.90
2023-05-06T17:03:00.014Z,22.80
2023-05-06T17:05:28.185Z,22.80
2023-05-06T17:07:58.071Z,22.70
2023-05-06T17:10:29.469Z,22.70
2023-05-06T17:12:59.041Z,22.70
2023-05-06T17:15:26.277Z,22.60
2023-05-06T17:17:55.682Z,22.60
2023-05-06T17:20:25.972Z,22.50
2023-05-06T17:22:55.400Z,22.50
2023-05-06T17:25:23.381Z,22.40
2023-05-06T17:27:55.757Z,22.40
2023-05-06T17:30:22.917Z,22.40
2023-05-06T17:32:50.187Z,22.40
2023-05-06T17:35:21.892Z,22.30
2023-05-06T17:37:51.431Z,22.30
2023-05-06T17:40:20.874Z,22.30
2023-05-06T17:42:48.073Z,22.30
2023-05-06T17:45:15.793Z,22.20
2023-05-06T17:47:45.267Z,22.20
2023-05-06T17:50:12.562Z,22.20
2023-05-06T17:52:39.733Z,22.20
2023-05-06T17:55:16.316Z,22.10
2023-05-06T17:57:44.437Z,22.10
2023-05-06T18:00:19.133Z,22.10
2023-05-06T18:02:50.835Z,22.10
2023-05-06T18:05:18.585Z,22.10
2023-05-06T18:07:50.339Z,22.10
2023-05-06T18:10:21.549Z,22.00
2023-05-06T18:12:51.261Z,22.00
2023-05-06T18:15:23.557Z,22.00
2023-05-06T18:17:50.725Z,22.00
2023-05-06T18:20:20.452Z,22.00
2023-05-06T18:22:50.105Z,22.00
2023-05-06T18:25:17.244Z,22.00
2023-05-06T18:27:44.700Z,22.00
2023-05-06T18:30:21.260Z,22.00
2023-05-06T18:32:50.987Z,22.00
2023-05-06T18:35:20.901Z,22.00
2023-05-06T18:37:50.540Z,21.90
2023-05-06T18:40:18.021Z,21.90
2023-05-06T18:42:48.884Z,21.90
2023-05-06T18:45:21.528Z,21.90
2023-05-06T18:47:48.789Z,21.90
2023-05-06T18:50:16.190Z,21.90
2023-05-06T18:52:45.907Z,21.90
2023-05-06T18:55:15.296Z,21.90
2023-05-06T18:57:44.706Z,21.90
2023-05-06T19:00:14.747Z,21.90
2023-05-06T19:02:49.214Z,21.80
2023-05-06T19:05:16.975Z,21.80
2023-05-06T19:07:44.173Z,21.80
2023-05-06T19:10:11.394Z,21.80
2023-05-06T19:12:38.594Z,21.80
2023-05-06T19:15:06.372Z,21.80
2023-05-06T19:17:36.044Z,21.80
2023-05-06T19:20:06.426Z,21.70
2023-05-06T19:22:41.276Z,21.70
2023-05-06T19:25:11.420Z,21.70
2023-05-06T19:27:38.778Z,21.70
2023-05-06T19:30:07.315Z,21.60
2023-05-06T19:32:40.340Z,21.60
2023-05-06T19:35:08.906Z,21.60
2023-05-06T19:37:38.757Z,21.60
2023-05-06T19:40:13.175Z,21.60
2023-05-06T19:42:47.177Z,21.50
2023-05-06T19:45:19.608Z,21.50
2023-05-06T19:47:49.356Z,21.50
2023-05-06T19:50:19.089Z,21.50
2023-05-06T19:52:51.016Z,21.50
2023-05-06T19:55:20.663Z,21.40
2023-05-06T19:57:47.918Z,21.40
2023-05-06T20:00:20.069Z,21.40
2023-05-06T20:02:47.395Z,21.40
2023-05-06T20:05:16.880Z,21.40
2023-05-06T20:07:46.374Z,21.30
2023-05-06T20:10:20.771Z,21.30
2023-05-06T20:12:50.668Z,21.30
2023-05-06T20:15:20.135Z,21.30
2023-05-06T20:17:47.361Z,21.30
2023-05-06T20:20:17.621Z,21.30
2023-05-06T20:22:44.807Z,21.30
2023-05-06T20:25:18.742Z,21.20
2023-05-06T20:27:48.680Z,21.20
2023-05-06T20:30:18.514Z,21.20
2023-05-06T20:32:46.807Z,21.20
2023-05-06T20:35:14.299Z,21.20
2023-05-06T20:37:41.727Z,21.10
2023-05-06T20:40:09.752Z,21.10
2023-05-06T20:42:42.629Z,21.10
2023-05-06T20:45:13.357Z,21.00
2023-05-06T20:47:43.184Z,21.00
2023-05-06T20:50:17.007Z,21.00
2023-05-06T20:52:46.151Z,21.00
2023-05-06T20:55:20.593Z,20.90
2023-05-06T20:57:52.211Z,20.90
2023-05-06T21:00:21.775Z,20.90
2023-05-06T21:02:51.083Z,20.90
2023-05-06T21:05:20.776Z,20.80
2023-05-06T21:07:47.919Z,20.80
2023-05-06T21:10:17.336Z,20.80
2023-05-06T21:12:52.548Z,20.80
2023-05-06T21:15:19.858Z,20.80
2023-05-06T21:17:49.250Z,20.80
2023-05-06T21:20:23.304Z,20.70
2023-05-06T21:22:52.889Z,20.70
2023-05-06T21:25:20.120Z,20.70
2023-05-06T21:27:51.643Z,20.60
2023-05-06T21:30:18.829Z,20.60
2023-05-06T21:32:48.256Z,20.60
2023-05-06T21:35:23.111Z,20.60
2023-05-06T21:37:51.058Z,20.60
2023-05-06T21:40:20.950Z,20.60
2023-05-06T21:42:50.860Z,20.60
2023-05-06T21:45:18.175Z,20.50
2023-05-06T21:47:45.981Z,20.50
2023-05-06T21:50:15.730Z,20.50
2023-05-06T21:52:42.876Z,20.40
2023-05-06T21:55:12.802Z,20.40
2023-05-06T21:57:40.279Z,20.40
2023-05-06T22:00:12.312Z,20.30
2023-05-06T22:02:43.019Z,20.30
2023-05-06T22:05:15.276Z,20.30
2023-05-06T22:07:42.537Z,20.20
2023-05-06T22:10:13.490Z,20.10
2023-05-06T22:12:40.910Z,20.10
2023-05-06T22:15:14.746Z,20.10
2023-05-06T22:17:44.559Z,20.00
2023-05-06T22:20:15.177Z,20.00
2023-05-06T22:22:45.373Z,19.90
2023-05-06T22:25:12.719Z,19.80
2023-05-06T22:27:40.203Z,19.80
2023-05-06T22:30:10.566Z,19.80
2023-05-06T22:32:37.920Z,19.70
2023-05-06T22:35:10.345Z,19.60
2023-05-06T22:37:42.372Z,19.70
2023-05-06T22:40:12.666Z,19.60
2023-05-06T22:42:39.910Z,19.50
2023-05-06T22:45:12.869Z,19.50
2023-05-06T22:47:42.845Z,19.40
2023-05-06T22:50:10.497Z,19.40
2023-05-06T22:52:39.831Z,19.30
2023-05-06T22:55:09.643Z,19.40
2023-05-06T22:57:39.510Z,19.30
2023-05-06T23:00:12.445Z,19.30
2023-05-06T23:02:39.903Z,19.20
2023-05-06T23:05:09.981Z,19.20
2023-05-06T23:07:37.330Z,19.20
2023-05-06T23:10:07.106Z,19.10
2023-05-06T23:12:36.884Z,19.10
2023-05-06T23:15:07.386Z,19.10
2023-05-06T23:17:39.273Z,19.10
2023-05-06T23:20:11.959Z,19.10
2023-05-06T23:22:41.703Z,19.10
2023-05-06T23:25:12.084Z,19.10
2023-05-06T23:27:39.839Z,19.10
2023-05-06T23:30:13.220Z,19.10
2023-05-06T23:32:43.021Z,19.10
2023-05-06T23:35:12.747Z,19.10
2023-05-06T23:37:42.540Z,19.10
2023-05-06T23:40:14.674Z,19.10
2023-05-06T23:42:43.950Z,19.10
2023-05-06T23:45:11.821Z,19.10
2023-05-06T23:47:44.174Z,19.10
2023-05-06T23:50:14.287Z,19.10
2023-05-06T23:52:44.103Z,19.00
2023-05-06T23:55:14.005Z,19.10
2023-05-06T23:57:41.415Z,19.10
